Cropper, Kentucky
Current Conditions -  °F | °C
As of 3:53 AM on Sunday 21 Dec 2014 (Local Time) from KFFT Reporting Station
Clear Clear  
Wind Chill: 21°   Ceiling: Unl
Heat Index: 21°   Visibility: 8mi
Dew Point: 17°   Wind: 3mph
Humidity: 85%   Direction: 330°NNW
Pressure: 30.28"   Gusts: NA
Location:  38.369°N, 85.0622°W
Report Text: KFFT 210853Z AUTO 33003KT 8SM CLR M06/M08 A3028 RMK AO2 SLP264 I1000 I3000 T10611083 50004
Loading
Personal Weather Stations






























Interactive Weather Map New forecast layout! Learn more

10-Day Weather Forecast

Advertisements
Track Severe Weather on mobile